createdAt,value
2023-02-19T00:01:48.586Z,9.50
2023-02-19T00:04:52.538Z,9.29
2023-02-19T00:07:56.309Z,9.32
2023-02-19T00:11:00.277Z,9.52
2023-02-19T00:14:04.413Z,9.58
2023-02-19T00:17:08.442Z,9.40
2023-02-19T00:20:12.260Z,9.42
2023-02-19T00:23:16.311Z,9.31
2023-02-19T00:26:20.342Z,9.40
2023-02-19T00:29:24.301Z,9.10
2023-02-19T00:32:28.274Z,9.11
2023-02-19T00:35:32.200Z,8.67
2023-02-19T00:38:36.231Z,8.88
2023-02-19T00:41:40.139Z,8.90
2023-02-19T00:44:44.183Z,8.73
2023-02-19T00:47:48.119Z,8.98
2023-02-19T00:50:52.531Z,8.86
2023-02-19T00:53:56.294Z,8.76
2023-02-19T00:57:00.520Z,8.63
2023-02-19T01:00:04.443Z,9.06
2023-02-19T01:03:08.434Z,9.03
2023-02-19T01:06:12.407Z,8.72
2023-02-19T01:09:16.425Z,9.20
2023-02-19T01:12:20.433Z,8.93
2023-02-19T01:15:24.368Z,8.98
2023-02-19T01:18:28.228Z,8.88
2023-02-19T01:21:32.192Z,8.98
2023-02-19T01:24:36.269Z,9.03
2023-02-19T01:27:40.144Z,8.54
2023-02-19T01:30:44.058Z,8.89
2023-02-19T01:33:48.089Z,9.00
2023-02-19T01:36:52.210Z,9.11
2023-02-19T01:39:56.127Z,9.17
2023-02-19T01:42:59.969Z,9.18
2023-02-19T01:46:04.038Z,9.15
2023-02-19T01:49:08.138Z,8.74
2023-02-19T01:52:12.297Z,8.51
2023-02-19T01:55:16.142Z,8.75
2023-02-19T01:58:20.193Z,8.80
2023-02-19T02:01:24.280Z,8.74
2023-02-19T02:04:28.253Z,8.42
2023-02-19T02:07:32.241Z,8.72
2023-02-19T02:10:35.965Z,8.59
2023-02-19T02:13:39.791Z,8.75
2023-02-19T02:16:43.840Z,8.68
2023-02-19T02:19:47.900Z,8.73
2023-02-19T02:22:51.682Z,8.57
2023-02-19T02:25:55.529Z,8.25
2023-02-19T02:28:59.546Z,8.18
2023-02-19T02:32:03.826Z,8.21
2023-02-19T02:35:07.596Z,8.31
2023-02-19T02:38:11.231Z,8.11
2023-02-19T02:41:15.261Z,7.59
2023-02-19T02:44:19.271Z,7.49
2023-02-19T02:47:23.207Z,7.46
2023-02-19T02:50:27.138Z,7.55
2023-02-19T02:53:31.086Z,7.98
2023-02-19T02:56:35.065Z,7.67
2023-02-19T02:59:39.074Z,7.72
2023-02-19T03:02:42.936Z,8.14
2023-02-19T03:05:46.932Z,7.84
2023-02-19T03:08:50.962Z,8.35
2023-02-19T03:11:54.815Z,8.48
2023-02-19T03:14:58.719Z,8.57
2023-02-19T03:18:02.598Z,8.74
2023-02-19T03:21:06.374Z,8.75
2023-02-19T03:24:10.374Z,8.91
2023-02-19T03:27:14.402Z,8.73
2023-02-19T03:30:18.405Z,8.15
2023-02-19T03:33:22.280Z,7.79
2023-02-19T03:36:26.341Z,8.25
2023-02-19T03:39:30.365Z,8.23
2023-02-19T03:42:34.406Z,8.09
2023-02-19T03:45:38.237Z,8.26
2023-02-19T03:48:42.195Z,8.31
2023-02-19T03:51:46.153Z,8.34
2023-02-19T03:54:50.106Z,8.41
2023-02-19T03:57:54.047Z,8.14
2023-02-19T04:00:57.876Z,7.99
2023-02-19T04:04:02.086Z,7.69
2023-02-19T04:07:06.328Z,7.77
2023-02-19T04:10:10.262Z,7.85
2023-02-19T04:13:14.114Z,7.94
2023-02-19T04:16:18.031Z,8.36
2023-02-19T04:19:22.265Z,8.62
2023-02-19T04:22:26.283Z,8.73
2023-02-19T04:25:30.008Z,8.78
2023-02-19T04:28:33.808Z,8.96
2023-02-19T04:31:37.916Z,9.01
2023-02-19T04:34:41.949Z,8.98
2023-02-19T04:37:45.883Z,9.07
2023-02-19T04:40:49.864Z,9.24
2023-02-19T04:43:53.630Z,9.16
2023-02-19T04:46:57.772Z,9.29
2023-02-19T04:50:01.793Z,9.10
2023-02-19T04:53:05.620Z,9.15
2023-02-19T04:56:10.551Z,9.01
2023-02-19T04:59:14.424Z,9.16
2023-02-19T05:02:18.568Z,8.93
2023-02-19T05:05:22.506Z,8.81
2023-02-19T05:08:26.274Z,9.12
2023-02-19T05:11:30.166Z,9.06
2023-02-19T05:14:34.290Z,8.93
2023-02-19T05:17:38.282Z,8.92
2023-02-19T05:20:41.972Z,9.11
2023-02-19T05:23:45.814Z,8.72
2023-02-19T05:26:49.793Z,8.52
2023-02-19T05:29:53.954Z,8.84
2023-02-19T05:32:57.927Z,9.05
2023-02-19T05:36:01.815Z,9.03
2023-02-19T05:39:05.809Z,9.08
2023-02-19T05:42:09.811Z,9.10
2023-02-19T05:45:13.367Z,9.16
2023-02-19T05:48:17.219Z,9.08
2023-02-19T05:51:21.155Z,8.76
2023-02-19T05:54:25.335Z,8.66
2023-02-19T05:57:29.261Z,8.84
2023-02-19T06:00:33.113Z,9.20
2023-02-19T06:03:37.138Z,9.32
2023-02-19T06:06:41.061Z,9.15
2023-02-19T06:09:45.119Z,9.18
2023-02-19T06:12:49.103Z,9.35
2023-02-19T06:15:53.013Z,9.42
2023-02-19T06:18:58.511Z,9.18
2023-02-19T06:22:02.478Z,8.95
2023-02-19T06:25:06.557Z,9.21
2023-02-19T06:28:10.534Z,9.05
2023-02-19T06:31:14.876Z,8.57
2023-02-19T06:34:18.902Z,8.29
2023-02-19T06:37:22.937Z,8.35
2023-02-19T06:40:26.992Z,8.53
2023-02-19T06:43:30.716Z,8.86
2023-02-19T06:46:34.699Z,9.01
2023-02-19T06:49:38.490Z,9.10
2023-02-19T06:52:42.536Z,9.20
2023-02-19T06:55:46.485Z,9.19
2023-02-19T06:58:50.765Z,8.83
2023-02-19T07:01:54.867Z,8.72
2023-02-19T07:04:59.072Z,9.12
2023-02-19T07:08:03.158Z,9.40
2023-02-19T07:11:07.049Z,9.38
2023-02-19T07:14:10.801Z,9.54
2023-02-19T07:17:15.109Z,9.64
2023-02-19T07:20:19.356Z,9.83
2023-02-19T07:23:23.317Z,9.89
2023-02-19T07:26:27.193Z,10.02
2023-02-19T07:29:31.166Z,10.14
2023-02-19T07:32:35.292Z,10.10
2023-02-19T07:35:39.171Z,10.26
2023-02-19T07:38:43.127Z,10.27
2023-02-19T07:41:47.092Z,9.98
2023-02-19T07:44:50.946Z,10.33
2023-02-19T07:47:54.940Z,10.04
2023-02-19T07:50:58.929Z,10.44
2023-02-19T07:54:03.077Z,10.50
2023-02-19T07:57:06.853Z,10.56
2023-02-19T08:00:10.859Z,10.38
2023-02-19T08:03:14.760Z,10.48
2023-02-19T08:06:18.728Z,10.64
2023-02-19T08:09:22.536Z,10.40
2023-02-19T08:12:26.492Z,10.84
2023-02-19T08:15:30.278Z,10.65
2023-02-19T08:18:34.238Z,10.99
2023-02-19T08:21:38.303Z,11.10
2023-02-19T08:24:42.149Z,11.01
2023-02-19T08:27:46.468Z,11.17
2023-02-19T08:30:50.489Z,10.93
2023-02-19T08:33:54.353Z,10.97
2023-02-19T08:36:58.212Z,11.12
2023-02-19T08:40:02.280Z,11.45
2023-02-19T08:43:06.385Z,11.38
2023-02-19T08:46:10.498Z,11.11
2023-02-19T08:49:14.614Z,11.53
2023-02-19T08:52:18.497Z,11.07
2023-02-19T08:55:22.585Z,11.06
2023-02-19T08:58:26.389Z,11.61
2023-02-19T09:01:30.116Z,11.23
2023-02-19T09:04:34.085Z,11.46
2023-02-19T09:07:38.043Z,11.82
2023-02-19T09:10:42.193Z,12.00
2023-02-19T09:13:46.083Z,11.91
2023-02-19T09:16:49.989Z,12.06
2023-02-19T09:19:54.090Z,12.19
2023-02-19T09:22:58.150Z,12.04
2023-02-19T09:26:02.043Z,12.15
2023-02-19T09:29:06.013Z,11.90
2023-02-19T09:32:10.269Z,11.49
2023-02-19T09:35:14.444Z,11.32
2023-02-19T09:38:18.620Z,11.57
2023-02-19T09:41:22.093Z,11.71
2023-02-19T09:44:26.058Z,11.83
2023-02-19T09:47:30.231Z,11.91
2023-02-19T09:50:34.203Z,12.20
2023-02-19T09:53:38.293Z,12.26
2023-02-19T09:56:42.518Z,12.30
2023-02-19T09:59:46.558Z,12.61
2023-02-19T10:02:50.654Z,12.56
2023-02-19T10:05:54.737Z,12.60
2023-02-19T10:08:58.620Z,12.42
2023-02-19T10:12:02.605Z,12.41
2023-02-19T10:15:06.555Z,12.41
2023-02-19T10:18:11.306Z,11.70
2023-02-19T10:21:15.681Z,11.69
2023-02-19T10:24:19.629Z,11.84
2023-02-19T10:27:23.422Z,11.96
2023-02-19T10:30:27.555Z,11.72
2023-02-19T10:33:31.373Z,11.78
2023-02-19T10:36:35.501Z,11.85
2023-02-19T10:39:39.426Z,11.67
2023-02-19T10:42:43.528Z,11.56
2023-02-19T10:45:47.683Z,11.65
2023-02-19T10:48:51.597Z,11.75
2023-02-19T10:51:55.479Z,11.95
2023-02-19T10:54:59.286Z,12.10
2023-02-19T10:58:03.317Z,12.15
2023-02-19T11:01:07.338Z,11.93
2023-02-19T11:04:11.204Z,12.24
2023-02-19T11:07:15.348Z,11.71
2023-02-19T11:10:19.380Z,11.81
2023-02-19T11:13:23.530Z,12.25
2023-02-19T11:16:27.605Z,12.49
2023-02-19T11:19:31.216Z,12.65
2023-02-19T11:22:35.358Z,12.45
2023-02-19T11:25:39.644Z,12.62
2023-02-19T11:28:43.462Z,12.65
2023-02-19T11:31:47.432Z,12.75
2023-02-19T11:34:51.256Z,12.76
2023-02-19T11:37:55.264Z,12.81
2023-02-19T11:40:59.374Z,12.69
2023-02-19T11:44:03.363Z,12.76
2023-02-19T11:47:07.275Z,12.71
2023-02-19T11:50:11.177Z,12.66
2023-02-19T11:53:15.277Z,12.69
2023-02-19T11:56:19.241Z,12.79
2023-02-19T11:59:23.159Z,12.82
2023-02-19T12:02:27.112Z,12.67
2023-02-19T12:05:30.997Z,12.67
2023-02-19T12:08:35.174Z,12.48
2023-02-19T12:11:39.349Z,12.77
2023-02-19T12:14:43.482Z,13.00
2023-02-19T12:17:47.283Z,12.92
2023-02-19T12:20:51.290Z,12.66
2023-02-19T12:23:55.085Z,12.86
2023-02-19T12:26:59.342Z,13.10
2023-02-19T12:30:03.301Z,13.06
2023-02-19T12:33:07.289Z,13.24
2023-02-19T12:36:11.638Z,12.96
2023-02-19T12:39:15.833Z,13.19
2023-02-19T12:42:19.729Z,13.26
2023-02-19T12:45:23.405Z,13.44
2023-02-19T12:48:27.544Z,13.51
2023-02-19T12:51:31.561Z,13.43
2023-02-19T12:54:35.354Z,13.61
2023-02-19T12:57:39.416Z,13.72
2023-02-19T13:00:44.464Z,13.69
2023-02-19T13:03:48.364Z,13.71
2023-02-19T13:06:52.415Z,13.66
2023-02-19T13:09:56.370Z,13.58
2023-02-19T13:13:00.233Z,13.39
2023-02-19T13:16:04.293Z,13.19
2023-02-19T13:19:08.354Z,13.11
2023-02-19T13:22:12.408Z,13.38
2023-02-19T13:25:16.354Z,13.47
2023-02-19T13:28:20.386Z,13.46
2023-02-19T13:31:26.109Z,13.58
2023-02-19T13:34:30.248Z,13.65
2023-02-19T13:37:33.958Z,13.73
2023-02-19T13:40:37.704Z,13.59
2023-02-19T13:43:41.850Z,13.61
2023-02-19T13:46:46.151Z,14.00
2023-02-19T13:49:52.236Z,14.26
2023-02-19T13:52:59.123Z,14.29
2023-02-19T13:56:03.346Z,14.24
2023-02-19T13:59:07.032Z,14.25
2023-02-19T14:02:11.021Z,14.30
2023-02-19T14:05:15.246Z,14.29
2023-02-19T14:08:19.112Z,14.13
2023-02-19T14:11:22.844Z,14.28
2023-02-19T14:14:26.865Z,14.29
2023-02-19T14:17:31.071Z,14.64
2023-02-19T14:20:35.152Z,14.47
2023-02-19T14:23:39.057Z,14.81
2023-02-19T14:26:43.097Z,14.99
2023-02-19T14:29:47.044Z,15.02
2023-02-19T14:32:54.511Z,14.93
2023-02-19T14:35:59.037Z,14.80
2023-02-19T14:39:02.949Z,14.61
2023-02-19T14:42:06.808Z,14.50
2023-02-19T14:45:10.872Z,14.34
2023-02-19T14:48:15.358Z,14.16
2023-02-19T14:51:19.461Z,14.04
2023-02-19T14:54:23.491Z,13.89
2023-02-19T14:57:27.447Z,13.96
2023-02-19T15:00:31.614Z,13.97
2023-02-19T15:03:35.799Z,13.99
2023-02-19T15:06:39.861Z,14.06
2023-02-19T15:09:43.946Z,14.19
2023-02-19T15:12:47.846Z,14.26
2023-02-19T15:15:51.948Z,14.37
2023-02-19T15:18:55.996Z,14.52
2023-02-19T15:22:00.178Z,14.55
2023-02-19T15:25:03.894Z,14.66
2023-02-19T15:28:07.876Z,14.68
2023-02-19T15:31:12.165Z,14.74
2023-02-19T15:34:16.288Z,14.76
2023-02-19T15:37:20.182Z,14.75
2023-02-19T15:40:24.152Z,14.81
2023-02-19T15:43:27.974Z,14.85
2023-02-19T15:46:32.116Z,14.85
2023-02-19T15:49:35.970Z,14.82
2023-02-19T15:52:39.760Z,14.75
2023-02-19T15:55:43.604Z,14.78
2023-02-19T15:58:47.796Z,14.87
2023-02-19T16:01:51.939Z,14.86
2023-02-19T16:04:55.907Z,14.76
2023-02-19T16:07:59.892Z,14.38
2023-02-19T16:11:03.887Z,14.66
2023-02-19T16:14:07.812Z,14.62
2023-02-19T16:17:11.623Z,14.43
2023-02-19T16:20:15.451Z,14.45
2023-02-19T16:23:19.759Z,14.27
2023-02-19T16:26:24.037Z,14.09
2023-02-19T16:29:28.188Z,14.07
2023-02-19T16:32:32.135Z,13.91
2023-02-19T16:35:36.060Z,13.82
2023-02-19T16:38:39.936Z,13.53
2023-02-19T16:41:43.761Z,13.38
2023-02-19T16:44:47.612Z,13.41
2023-02-19T16:47:51.474Z,13.05
2023-02-19T16:50:55.776Z,13.45
2023-02-19T16:53:59.685Z,13.34
2023-02-19T16:57:03.732Z,13.20
2023-02-19T17:00:07.776Z,12.84
2023-02-19T17:03:11.671Z,13.15
2023-02-19T17:06:15.698Z,12.41
2023-02-19T17:09:19.638Z,12.36
2023-02-19T17:12:23.260Z,12.55
2023-02-19T17:15:27.972Z,12.37
2023-02-19T17:18:31.955Z,12.37
2023-02-19T17:21:35.808Z,12.22
2023-02-19T17:24:39.976Z,12.53
2023-02-19T17:27:43.610Z,12.23
2023-02-19T17:30:49.365Z,12.01
2023-02-19T17:33:53.596Z,11.95
2023-02-19T17:36:57.423Z,11.69
2023-02-19T17:40:01.619Z,11.83
2023-02-19T17:43:05.507Z,11.48
2023-02-19T17:46:09.335Z,11.60
2023-02-19T17:49:13.571Z,11.83
2023-02-19T17:52:17.450Z,11.79
2023-02-19T17:55:22.783Z,11.68
2023-02-19T17:58:27.717Z,11.54
2023-02-19T18:01:31.706Z,11.82
2023-02-19T18:04:37.009Z,11.49
2023-02-19T18:07:42.904Z,11.58
2023-02-19T18:10:47.347Z,11.28
2023-02-19T18:13:51.542Z,11.23
2023-02-19T18:16:55.465Z,11.59
2023-02-19T18:19:59.690Z,11.23
2023-02-19T18:23:03.612Z,11.35
2023-02-19T18:26:07.586Z,11.15
2023-02-19T18:29:11.991Z,11.62
2023-02-19T18:32:18.786Z,11.62
2023-02-19T18:35:22.797Z,11.50
2023-02-19T18:38:29.071Z,11.91
2023-02-19T18:41:56.169Z,11.91
2023-02-19T18:44:58.243Z,11.71
2023-02-19T18:48:02.021Z,11.96
2023-02-19T18:51:05.786Z,12.07
2023-02-19T18:54:09.908Z,12.21
2023-02-19T18:57:13.569Z,11.99
2023-02-19T19:00:17.862Z,11.58
2023-02-19T19:03:22.312Z,11.69
2023-02-19T19:06:26.224Z,11.97
2023-02-19T19:09:30.152Z,11.99
2023-02-19T19:12:34.325Z,12.05
2023-02-19T19:15:38.425Z,11.37
2023-02-19T19:18:42.631Z,11.62
2023-02-19T19:21:46.609Z,11.43
2023-02-19T19:24:50.349Z,11.16
2023-02-19T19:27:54.138Z,11.39
2023-02-19T19:31:01.544Z,11.47
2023-02-19T19:34:05.834Z,11.55
2023-02-19T19:37:09.737Z,11.62
2023-02-19T19:40:13.386Z,11.79
2023-02-19T19:43:17.492Z,11.70
2023-02-19T19:46:21.936Z,11.70
2023-02-19T19:49:26.145Z,11.45
2023-02-19T19:52:29.991Z,11.44
2023-02-19T19:55:33.721Z,11.52
2023-02-19T19:58:37.672Z,11.15
2023-02-19T20:01:41.587Z,11.03
2023-02-19T20:04:45.568Z,11.19
2023-02-19T20:07:49.517Z,11.31
2023-02-19T20:10:53.377Z,11.15
2023-02-19T20:13:57.272Z,10.78
2023-02-19T20:17:01.589Z,10.51
2023-02-19T20:20:05.428Z,10.63
2023-02-19T20:23:09.271Z,10.82
2023-02-19T20:26:13.266Z,10.20
2023-02-19T20:29:17.224Z,10.27
2023-02-19T20:32:21.315Z,10.16
2023-02-19T20:35:26.485Z,9.95
2023-02-19T20:38:30.677Z,10.37
2023-02-19T20:41:35.001Z,10.40
2023-02-19T20:44:38.881Z,10.40
2023-02-19T20:47:42.499Z,10.20
2023-02-19T20:50:46.581Z,9.86
2023-02-19T20:53:51.125Z,9.66
2023-02-19T20:56:55.155Z,10.00
2023-02-19T20:59:59.288Z,10.02
2023-02-19T21:03:03.579Z,10.40
2023-02-19T21:06:07.502Z,10.42
2023-02-19T21:09:11.687Z,10.38
2023-02-19T21:12:15.991Z,10.55
2023-02-19T21:15:20.015Z,10.41
2023-02-19T21:18:24.084Z,10.41
2023-02-19T21:21:28.002Z,10.47
2023-02-19T21:24:32.434Z,10.51
2023-02-19T21:27:36.447Z,10.26
2023-02-19T21:30:41.707Z,9.86
2023-02-19T21:33:45.851Z,10.09
2023-02-19T21:36:49.606Z,9.85
2023-02-19T21:39:54.027Z,9.98
2023-02-19T21:42:58.198Z,10.18
2023-02-19T21:46:02.403Z,9.91
2023-02-19T21:49:06.636Z,9.78
2023-02-19T21:52:10.807Z,9.44
2023-02-19T21:55:15.160Z,9.12
2023-02-19T21:58:19.308Z,9.73
2023-02-19T22:01:23.049Z,9.72
2023-02-19T22:04:29.270Z,9.84
2023-02-19T22:07:33.446Z,9.95
2023-02-19T22:10:37.368Z,9.86
2023-02-19T22:13:41.592Z,10.07
2023-02-19T22:16:45.356Z,9.73
2023-02-19T22:19:49.394Z,9.42
2023-02-19T22:22:53.356Z,9.70
2023-02-19T22:25:57.270Z,8.87
2023-02-19T22:29:01.411Z,8.55
2023-02-19T22:32:06.691Z,8.57
2023-02-19T22:35:15.692Z,8.46
2023-02-19T22:38:19.936Z,8.57
2023-02-19T22:41:23.696Z,9.03
2023-02-19T22:44:27.860Z,9.46
2023-02-19T22:47:34.021Z,9.30
2023-02-19T22:50:37.987Z,9.39
2023-02-19T22:53:43.052Z,8.96
2023-02-19T22:56:47.314Z,8.96
2023-02-19T22:59:51.607Z,8.88
2023-02-19T23:02:56.360Z,8.68
2023-02-19T23:06:00.463Z,8.93
2023-02-19T23:09:04.347Z,9.14
2023-02-19T23:12:08.278Z,8.96
2023-02-19T23:15:13.647Z,8.64
2023-02-19T23:18:17.825Z,8.85
2023-02-19T23:21:21.357Z,9.15
2023-02-19T23:24:25.391Z,8.49
2023-02-19T23:27:29.787Z,8.31
2023-02-19T23:30:33.788Z,8.98
2023-02-19T23:33:37.760Z,8.64
2023-02-19T23:36:41.820Z,8.54
2023-02-19T23:39:45.752Z,8.42
2023-02-19T23:42:49.669Z,8.80
2023-02-19T23:45:53.967Z,9.04
2023-02-19T23:48:57.928Z,8.47
2023-02-19T23:52:01.830Z,8.85
2023-02-19T23:55:05.830Z,8.80
2023-02-19T23:58:09.946Z,8.40
